sensor_id;sensor_type;location;lat;lon;timestamp;pressure;altitude;pressure_sealevel;temperature;humidity
11347;BME280;5728;42.722;23.258;2023-03-22T00:01:36;94420.97;;;10.93;95.32
11347;BME280;5728;42.722;23.258;2023-03-22T00:04:05;94420.16;;;10.92;95.25
11347;BME280;5728;42.722;23.258;2023-03-22T00:06:33;94417.91;;;10.75;95.79
11347;BME280;5728;42.722;23.258;2023-03-22T00:09:00;94409.84;;;10.05;98.34
11347;BME280;5728;42.722;23.258;2023-03-22T00:11:26;94414.78;;;9.73;99.48
11347;BME280;5728;42.722;23.258;2023-03-22T00:13:53;94459.50;;;9.81;99.98
11347;BME280;5728;42.722;23.258;2023-03-22T00:16:20;94409.78;;;9.63;100.00
11347;BME280;5728;42.722;23.258;2023-03-22T00:18:47;94415.09;;;10.02;100.00
11347;BME280;5728;42.722;23.258;2023-03-22T00:21:15;94415.03;;;10.05;100.00
11347;BME280;5728;42.722;23.258;2023-03-22T00:23:44;94419.16;;;10.16;100.00
11347;BME280;5728;42.722;23.258;2023-03-22T00:26:12;94413.78;;;10.27;100.00
11347;BME280;5728;42.722;23.258;2023-03-22T00:28:40;94424.00;;;10.33;99.83
11347;BME280;5728;42.722;23.258;2023-03-22T00:31:07;94410.19;;;10.33;100.00
11347;BME280;5728;42.722;23.258;2023-03-22T00:33:35;94430.72;;;10.43;99.12
11347;BME280;5728;42.722;23.258;2023-03-22T00:36:04;94408.69;;;10.62;99.20
11347;BME280;5728;42.722;23.258;2023-03-22T00:38:32;94421.00;;;10.53;98.74
11347;BME280;5728;42.722;23.258;2023-03-22T00:41:07;94407.00;;;10.60;98.61
11347;BME280;5728;42.722;23.258;2023-03-22T00:43:35;94404.59;;;10.52;98.64
11347;BME280;5728;42.722;23.258;2023-03-22T00:46:02;94398.63;;;10.47;98.79
11347;BME280;5728;42.722;23.258;2023-03-22T00:48:29;94399.72;;;10.37;99.84
11347;BME280;5728;42.722;23.258;2023-03-22T00:50:56;94398.91;;;10.35;99.84
11347;BME280;5728;42.722;23.258;2023-03-22T00:53:23;94401.63;;;10.29;100.00
11347;BME280;5728;42.722;23.258;2023-03-22T00:55:50;94408.00;;;10.10;100.00
11347;BME280;5728;42.722;23.258;2023-03-22T00:58:18;94401.44;;;10.38;100.00
11347;BME280;5728;42.722;23.258;2023-03-22T01:00:45;94398.00;;;10.38;100.00
11347;BME280;5728;42.722;23.258;2023-03-22T01:03:12;94390.03;;;10.04;100.00
11347;BME280;5728;42.722;23.258;2023-03-22T01:05:40;94387.69;;;9.92;100.00
11347;BME280;5728;42.722;23.258;2023-03-22T01:08:07;94378.81;;;10.03;100.00
11347;BME280;5728;42.722;23.258;2023-03-22T01:10:34;94392.81;;;9.93;100.00
11347;BME280;5728;42.722;23.258;2023-03-22T01:13:01;94392.69;;;9.53;100.00
11347;BME280;5728;42.722;23.258;2023-03-22T01:15:30;94398.25;;;9.80;100.00
11347;BME280;5728;42.722;23.258;2023-03-22T01:17:57;94387.78;;;9.86;100.00
11347;BME280;5728;42.722;23.258;2023-03-22T01:20:25;94393.41;;;9.61;100.00
11347;BME280;5728;42.722;23.258;2023-03-22T01:22:52;94395.88;;;9.68;100.00
11347;BME280;5728;42.722;23.258;2023-03-22T01:25:19;94381.25;;;9.65;100.00
11347;BME280;5728;42.722;23.258;2023-03-22T01:27:46;94384.88;;;9.56;100.00
11347;BME280;5728;42.722;23.258;2023-03-22T01:30:13;94376.53;;;9.39;100.00
11347;BME280;5728;42.722;23.258;2023-03-22T01:32:41;94381.19;;;9.19;100.00
11347;BME280;5728;42.722;23.258;2023-03-22T01:35:09;94375.50;;;9.49;100.00
11347;BME280;5728;42.722;23.258;2023-03-22T01:37:35;94374.94;;;9.34;100.00
11347;BME280;5728;42.722;23.258;2023-03-22T01:40:03;94362.00;;;9.32;100.00
11347;BME280;5728;42.722;23.258;2023-03-22T01:42:30;94366.44;;;9.24;100.00
11347;BME280;5728;42.722;23.258;2023-03-22T01:48:03;94370.16;;;9.10;100.00
11347;BME280;5728;42.722;23.258;2023-03-22T01:50:31;94369.16;;;9.18;100.00
11347;BME280;5728;42.722;23.258;2023-03-22T01:52:59;94364.06;;;9.12;100.00
11347;BME280;5728;42.722;23.258;2023-03-22T01:55:29;94383.06;;;9.11;100.00
11347;BME280;5728;42.722;23.258;2023-03-22T01:57:58;94365.63;;;9.22;100.00
11347;BME280;5728;42.722;23.258;2023-03-22T02:00:26;94372.22;;;9.40;100.00
11347;BME280;5728;42.722;23.258;2023-03-22T02:02:53;94371.09;;;9.54;100.00
11347;BME280;5728;42.722;23.258;2023-03-22T02:05:21;94362.41;;;9.57;100.00
11347;BME280;5728;42.722;23.258;2023-03-22T02:07:49;94380.03;;;9.38;100.00
11347;BME280;5728;42.722;23.258;2023-03-22T02:10:18;94374.56;;;9.53;100.00
11347;BME280;5728;42.722;23.258;2023-03-22T02:12:57;94374.38;;;9.64;100.00
11347;BME280;5728;42.722;23.258;2023-03-22T02:15:32;94377.66;;;9.72;100.00
11347;BME280;5728;42.722;23.258;2023-03-22T02:18:12;94370.78;;;9.24;100.00
11347;BME280;5728;42.722;23.258;2023-03-22T02:21:06;94374.03;;;8.83;100.00
11347;BME280;5728;42.722;23.258;2023-03-22T02:24:19;94368.31;;;8.63;100.00
11347;BME280;5728;42.722;23.258;2023-03-22T02:29:59;94377.38;;;8.28;100.00
11347;BME280;5728;42.722;23.258;2023-03-22T02:32:46;94391.19;;;8.24;100.00
11347;BME280;5728;42.722;23.258;2023-03-22T02:35:37;94377.44;;;8.22;100.00
11347;BME280;5728;42.722;23.258;2023-03-22T02:41:10;94383.69;;;8.05;100.00
11347;BME280;5728;42.722;23.258;2023-03-22T02:43:44;94401.75;;;8.05;100.00
11347;BME280;5728;42.722;23.258;2023-03-22T02:46:21;94388.50;;;8.35;100.00
11347;BME280;5728;42.722;23.258;2023-03-22T02:48:52;94412.66;;;8.31;100.00
11347;BME280;5728;42.722;23.258;2023-03-22T02:51:25;94398.63;;;8.50;100.00
11347;BME280;5728;42.722;23.258;2023-03-22T02:53:57;94371.91;;;8.53;100.00
11347;BME280;5728;42.722;23.258;2023-03-22T02:56:32;94394.59;;;8.89;100.00
11347;BME280;5728;42.722;23.258;2023-03-22T02:59:05;94402.56;;;8.75;100.00
11347;BME280;5728;42.722;23.258;2023-03-22T03:01:37;94396.81;;;8.57;100.00
11347;BME280;5728;42.722;23.258;2023-03-22T03:04:08;94388.78;;;8.75;100.00
11347;BME280;5728;42.722;23.258;2023-03-22T03:06:39;94398.84;;;8.96;100.00
11347;BME280;5728;42.722;23.258;2023-03-22T03:09:11;94401.19;;;9.10;100.00
11347;BME280;5728;42.722;23.258;2023-03-22T03:11:44;94396.22;;;8.97;100.00
11347;BME280;5728;42.722;23.258;2023-03-22T03:14:20;94409.09;;;8.99;100.00
11347;BME280;5728;42.722;23.258;2023-03-22T03:17:02;94399.53;;;9.04;100.00
11347;BME280;5728;42.722;23.258;2023-03-22T03:19:36;94403.03;;;9.03;100.00
11347;BME280;5728;42.722;23.258;2023-03-22T03:22:12;94404.00;;;8.96;100.00
11347;BME280;5728;42.722;23.258;2023-03-22T03:24:47;94400.97;;;9.23;100.00
11347;BME280;5728;42.722;23.258;2023-03-22T03:27:21;94390.50;;;8.76;100.00
11347;BME280;5728;42.722;23.258;2023-03-22T03:29:53;94397.69;;;8.56;100.00
11347;BME280;5728;42.722;23.258;2023-03-22T03:32:28;94403.25;;;8.86;100.00
11347;BME280;5728;42.722;23.258;2023-03-22T03:35:03;94406.69;;;8.87;100.00
11347;BME280;5728;42.722;23.258;2023-03-22T03:37:35;94399.22;;;8.70;100.00
11347;BME280;5728;42.722;23.258;2023-03-22T03:40:06;94413.56;;;8.89;100.00
11347;BME280;5728;42.722;23.258;2023-03-22T03:42:39;94402.47;;;8.83;100.00
11347;BME280;5728;42.722;23.258;2023-03-22T03:45:09;94409.22;;;8.91;100.00
11347;BME280;5728;42.722;23.258;2023-03-22T03:47:36;94410.16;;;8.87;100.00
11347;BME280;5728;42.722;23.258;2023-03-22T03:50:04;94403.41;;;8.77;100.00
11347;BME280;5728;42.722;23.258;2023-03-22T03:52:31;94406.16;;;8.64;100.00
11347;BME280;5728;42.722;23.258;2023-03-22T03:54:58;94411.28;;;8.70;100.00
11347;BME280;5728;42.722;23.258;2023-03-22T03:57:25;94422.59;;;8.60;100.00
11347;BME280;5728;42.722;23.258;2023-03-22T03:59:53;94399.63;;;8.39;100.00
11347;BME280;5728;42.722;23.258;2023-03-22T04:02:20;94414.69;;;8.72;100.00
11347;BME280;5728;42.722;23.258;2023-03-22T04:04:47;94421.47;;;8.80;100.00
11347;BME280;5728;42.722;23.258;2023-03-22T04:07:13;94429.31;;;8.71;100.00
11347;BME280;5728;42.722;23.258;2023-03-22T04:09:40;94426.03;;;8.63;100.00
11347;BME280;5728;42.722;23.258;2023-03-22T04:12:07;94425.03;;;8.72;100.00
11347;BME280;5728;42.722;23.258;2023-03-22T04:14:35;94423.44;;;8.62;100.00
11347;BME280;5728;42.722;23.258;2023-03-22T04:17:03;94421.78;;;8.58;100.00
11347;BME280;5728;42.722;23.258;2023-03-22T04:19:30;94439.28;;;8.38;100.00
11347;BME280;5728;42.722;23.258;2023-03-22T04:21:57;94425.44;;;8.42;100.00
11347;BME280;5728;42.722;23.258;2023-03-22T04:24:25;94429.75;;;8.40;100.00
11347;BME280;5728;42.722;23.258;2023-03-22T04:26:52;94425.44;;;8.42;100.00
11347;BME280;5728;42.722;23.258;2023-03-22T04:29:19;94435.09;;;8.27;100.00
11347;BME280;5728;42.722;23.258;2023-03-22T04:31:47;94440.94;;;8.42;100.00
11347;BME280;5728;42.722;23.258;2023-03-22T04:34:15;94433.09;;;8.51;100.00
11347;BME280;5728;42.722;23.258;2023-03-22T04:36:42;94423.81;;;8.34;100.00
11347;BME280;5728;42.722;23.258;2023-03-22T04:39:10;94428.97;;;8.34;100.00
11347;BME280;5728;42.722;23.258;2023-03-22T04:41:37;94450.47;;;8.38;100.00
11347;BME280;5728;42.722;23.258;2023-03-22T04:44:05;94437.53;;;8.37;100.00
11347;BME280;5728;42.722;23.258;2023-03-22T04:46:34;94424.63;;;8.38;100.00
11347;BME280;5728;42.722;23.258;2023-03-22T04:49:02;94428.81;;;8.48;100.00
11347;BME280;5728;42.722;23.258;2023-03-22T04:51:31;94432.13;;;8.58;100.00
11347;BME280;5728;42.722;23.258;2023-03-22T04:53:57;94443.53;;;8.40;100.00
11347;BME280;5728;42.722;23.258;2023-03-22T04:56:24;94439.94;;;8.52;100.00
11347;BME280;5728;42.722;23.258;2023-03-22T04:58:51;94444.41;;;8.41;100.00
11347;BME280;5728;42.722;23.258;2023-03-22T05:01:18;94441.56;;;8.59;100.00
11347;BME280;5728;42.722;23.258;2023-03-22T05:03:45;94456.06;;;8.69;100.00
11347;BME280;5728;42.722;23.258;2023-03-22T05:06:12;94443.94;;;8.74;100.00
11347;BME280;5728;42.722;23.258;2023-03-22T05:08:41;94444.47;;;8.98;100.00
11347;BME280;5728;42.722;23.258;2023-03-22T05:11:11;94454.38;;;8.66;100.00
11347;BME280;5728;42.722;23.258;2023-03-22T05:13:38;94452.97;;;8.46;100.00
11347;BME280;5728;42.722;23.258;2023-03-22T05:16:06;94449.00;;;8.83;100.00
11347;BME280;5728;42.722;23.258;2023-03-22T05:18:34;94457.41;;;8.97;100.00
11347;BME280;5728;42.722;23.258;2023-03-22T05:21:02;94463.31;;;9.05;100.00
11347;BME280;5728;42.722;23.258;2023-03-22T05:23:31;94466.44;;;9.27;100.00
11347;BME280;5728;42.722;23.258;2023-03-22T05:25:59;94466.22;;;9.40;100.00
11347;BME280;5728;42.722;23.258;2023-03-22T05:28:26;94471.38;;;9.43;100.00
11347;BME280;5728;42.722;23.258;2023-03-22T05:30:53;94476.22;;;9.07;100.00
11347;BME280;5728;42.722;23.258;2023-03-22T05:33:19;94471.34;;;8.87;100.00
11347;BME280;5728;42.722;23.258;2023-03-22T05:35:47;94476.59;;;8.81;100.00
11347;BME280;5728;42.722;23.258;2023-03-22T05:38:15;94471.91;;;9.07;100.00
11347;BME280;5728;42.722;23.258;2023-03-22T05:40:42;94477.13;;;9.06;100.00
11347;BME280;5728;42.722;23.258;2023-03-22T05:43:10;94478.69;;;9.16;100.00
11347;BME280;5728;42.722;23.258;2023-03-22T05:45:37;94468.28;;;9.20;100.00
11347;BME280;5728;42.722;23.258;2023-03-22T05:48:04;94474.97;;;9.32;100.00
11347;BME280;5728;42.722;23.258;2023-03-22T05:50:32;94483.47;;;9.40;100.00
11347;BME280;5728;42.722;23.258;2023-03-22T05:53:00;94479.41;;;9.25;100.00
11347;BME280;5728;42.722;23.258;2023-03-22T05:55:27;94479.00;;;9.49;100.00
11347;BME280;5728;42.722;23.258;2023-03-22T05:57:56;94482.81;;;9.29;100.00
11347;BME280;5728;42.722;23.258;2023-03-22T06:00:25;94488.56;;;8.88;100.00
11347;BME280;5728;42.722;23.258;2023-03-22T06:02:57;94493.84;;;8.79;100.00
11347;BME280;5728;42.722;23.258;2023-03-22T06:05:28;94493.50;;;9.06;100.00
11347;BME280;5728;42.722;23.258;2023-03-22T06:07:55;94495.94;;;9.15;100.00
11347;BME280;5728;42.722;23.258;2023-03-22T06:10:22;94500.94;;;9.27;100.00
11347;BME280;5728;42.722;23.258;2023-03-22T06:12:51;94495.66;;;9.33;100.00
11347;BME280;5728;42.722;23.258;2023-03-22T06:15:18;94494.41;;;9.02;100.00
11347;BME280;5728;42.722;23.258;2023-03-22T06:17:46;94508.22;;;9.01;100.00
11347;BME280;5728;42.722;23.258;2023-03-22T06:20:14;94519.09;;;8.59;100.00
11347;BME280;5728;42.722;23.258;2023-03-22T06:22:41;94505.84;;;8.86;100.00
11347;BME280;5728;42.722;23.258;2023-03-22T06:25:09;94507.09;;;9.17;100.00
11347;BME280;5728;42.722;23.258;2023-03-22T06:27:36;94512.63;;;9.52;100.00
11347;BME280;5728;42.722;23.258;2023-03-22T06:30:03;94501.28;;;9.61;100.00
11347;BME280;5728;42.722;23.258;2023-03-22T06:32:30;94523.41;;;9.79;100.00
11347;BME280;5728;42.722;23.258;2023-03-22T06:34:58;94509.19;;;10.04;100.00
11347;BME280;5728;42.722;23.258;2023-03-22T06:37:25;94513.69;;;10.40;100.00
11347;BME280;5728;42.722;23.258;2023-03-22T06:39:52;94513.44;;;10.54;100.00
11347;BME280;5728;42.722;23.258;2023-03-22T06:42:18;94508.97;;;10.60;99.94
11347;BME280;5728;42.722;23.258;2023-03-22T06:44:45;94518.78;;;10.46;100.00
11347;BME280;5728;42.722;23.258;2023-03-22T06:47:12;94511.88;;;10.45;99.10
11347;BME280;5728;42.722;23.258;2023-03-22T06:49:39;94523.19;;;10.41;100.00
11347;BME280;5728;42.722;23.258;2023-03-22T06:52:07;94521.94;;;10.60;99.91
11347;BME280;5728;42.722;23.258;2023-03-22T06:54:34;94520.31;;;10.56;100.00
11347;BME280;5728;42.722;23.258;2023-03-22T06:57:01;94531.44;;;10.17;98.37
11347;BME280;5728;42.722;23.258;2023-03-22T06:59:28;94526.97;;;10.23;99.91
11347;BME280;5728;42.722;23.258;2023-03-22T07:01:55;94525.34;;;10.62;99.57
11347;BME280;5728;42.722;23.258;2023-03-22T07:04:22;94537.03;;;10.42;97.28
11347;BME280;5728;42.722;23.258;2023-03-22T07:06:49;94524.09;;;10.39;98.87
11347;BME280;5728;42.722;23.258;2023-03-22T07:09:17;94531.06;;;10.35;99.46
11347;BME280;5728;42.722;23.258;2023-03-22T07:11:44;94529.41;;;10.33;100.00
11347;BME280;5728;42.722;23.258;2023-03-22T07:14:11;94541.09;;;10.53;100.00
11347;BME280;5728;42.722;23.258;2023-03-22T07:16:38;94533.59;;;10.82;100.00
11347;BME280;5728;42.722;23.258;2023-03-22T07:19:05;94544.06;;;10.78;100.00
11347;BME280;5728;42.722;23.258;2023-03-22T07:21:31;94540.09;;;11.05;100.00
11347;BME280;5728;42.722;23.258;2023-03-22T07:23:58;94540.50;;;10.83;99.42
11347;BME280;5728;42.722;23.258;2023-03-22T07:26:26;94562.66;;;11.00;97.17
11347;BME280;5728;42.722;23.258;2023-03-22T07:28:54;94549.16;;;10.82;97.96
11347;BME280;5728;42.722;23.258;2023-03-22T07:31:21;94556.88;;;10.87;98.00
11347;BME280;5728;42.722;23.258;2023-03-22T07:33:48;94547.09;;;10.55;99.05
11347;BME280;5728;42.722;23.258;2023-03-22T07:36:16;94552.47;;;10.90;99.57
11347;BME280;5728;42.722;23.258;2023-03-22T07:38:48;94553.00;;;11.06;100.00
11347;BME280;5728;42.722;23.258;2023-03-22T07:41:15;94563.97;;;11.19;98.58
11347;BME280;5728;42.722;23.258;2023-03-22T07:43:43;94560.69;;;11.11;95.11
11347;BME280;5728;42.722;23.258;2023-03-22T07:46:10;94573.72;;;10.65;96.58
11347;BME280;5728;42.722;23.258;2023-03-22T07:48:37;94561.03;;;10.50;97.88
11347;BME280;5728;42.722;23.258;2023-03-22T07:51:05;94568.91;;;10.45;98.55
11347;BME280;5728;42.722;23.258;2023-03-22T07:53:32;94565.44;;;10.45;99.02
11347;BME280;5728;42.722;23.258;2023-03-22T07:56:00;94566.91;;;10.10;99.85
11347;BME280;5728;42.722;23.258;2023-03-22T07:58:27;94569.13;;;10.33;99.83
11347;BME280;5728;42.722;23.258;2023-03-22T08:00:55;94577.81;;;10.32;99.01
11347;BME280;5728;42.722;23.258;2023-03-22T08:03:23;94573.34;;;10.37;99.26
11347;BME280;5728;42.722;23.258;2023-03-22T08:05:49;94581.22;;;10.34;99.85
11347;BME280;5728;42.722;23.258;2023-03-22T08:08:17;94577.22;;;10.62;99.60
11347;BME280;5728;42.722;23.258;2023-03-22T08:10:48;94574.41;;;10.74;99.00
11347;BME280;5728;42.722;23.258;2023-03-22T08:13:15;94577.78;;;10.79;96.28
11347;BME280;5728;42.722;23.258;2023-03-22T08:15:42;94578.66;;;10.78;94.69
11347;BME280;5728;42.722;23.258;2023-03-22T08:18:10;94580.72;;;10.60;94.44
11347;BME280;5728;42.722;23.258;2023-03-22T08:20:37;94580.66;;;10.64;94.20
11347;BME280;5728;42.722;23.258;2023-03-22T08:23:04;94581.00;;;10.46;93.86
11347;BME280;5728;42.722;23.258;2023-03-22T08:25:32;94582.53;;;10.55;95.53
11347;BME280;5728;42.722;23.258;2023-03-22T08:27:59;94583.41;;;10.57;95.55
11347;BME280;5728;42.722;23.258;2023-03-22T08:30:26;94591.13;;;10.58;95.75
11347;BME280;5728;42.722;23.258;2023-03-22T08:32:53;94592.63;;;10.22;96.53
11347;BME280;5728;42.722;23.258;2023-03-22T08:35:21;94595.16;;;10.27;98.52
11347;BME280;5728;42.722;23.258;2023-03-22T08:37:49;94591.94;;;10.11;99.72
11347;BME280;5728;42.722;23.258;2023-03-22T08:40:18;94591.41;;;9.91;100.00
11347;BME280;5728;42.722;23.258;2023-03-22T08:42:45;94590.25;;;10.09;100.00
11347;BME280;5728;42.722;23.258;2023-03-22T08:45:11;94595.63;;;9.97;100.00
11347;BME280;5728;42.722;23.258;2023-03-22T08:47:38;94596.78;;;9.79;100.00
11347;BME280;5728;42.722;23.258;2023-03-22T08:50:06;94606.50;;;9.63;100.00
11347;BME280;5728;42.722;23.258;2023-03-22T08:52:35;94604.34;;;9.91;100.00
11347;BME280;5728;42.722;23.258;2023-03-22T08:55:02;94600.31;;;9.72;100.00
11347;BME280;5728;42.722;23.258;2023-03-22T08:57:28;94607.69;;;9.98;100.00
11347;BME280;5728;42.722;23.258;2023-03-22T08:59:56;94601.53;;;10.05;100.00
11347;BME280;5728;42.722;23.258;2023-03-22T09:02:23;94599.97;;;9.95;100.00
11347;BME280;5728;42.722;23.258;2023-03-22T09:04:50;94597.34;;;9.98;100.00
11347;BME280;5728;42.722;23.258;2023-03-22T09:07:17;94610.09;;;10.10;100.00
11347;BME280;5728;42.722;23.258;2023-03-22T09:09:46;94608.25;;;10.19;100.00
11347;BME280;5728;42.722;23.258;2023-03-22T09:12:12;94604.03;;;10.14;100.00
11347;BME280;5728;42.722;23.258;2023-03-22T09:14:40;94603.53;;;10.41;100.00
11347;BME280;5728;42.722;23.258;2023-03-22T09:17:07;94604.31;;;10.46;100.00
11347;BME280;5728;42.722;23.258;2023-03-22T09:19:34;94612.66;;;10.13;100.00
11347;BME280;5728;42.722;23.258;2023-03-22T09:22:00;94616.06;;;10.15;100.00
11347;BME280;5728;42.722;23.258;2023-03-22T09:24:27;94617.94;;;10.07;100.00
11347;BME280;5728;42.722;23.258;2023-03-22T09:26:55;94637.78;;;10.05;100.00
11347;BME280;5728;42.722;23.258;2023-03-22T09:29:23;94608.25;;;10.19;100.00
11347;BME280;5728;42.722;23.258;2023-03-22T09:31:50;94619.44;;;10.20;100.00
11347;BME280;5728;42.722;23.258;2023-03-22T09:34:17;94611.41;;;10.37;100.00
11347;BME280;5728;42.722;23.258;2023-03-22T09:36:44;94610.16;;;10.07;100.00
11347;BME280;5728;42.722;23.258;2023-03-22T09:39:11;94606.13;;;9.88;100.00
11347;BME280;5728;42.722;23.258;2023-03-22T09:41:43;94607.56;;;10.07;100.00
11347;BME280;5728;42.722;23.258;2023-03-22T09:44:16;94611.75;;;10.17;99.77
11347;BME280;5728;42.722;23.258;2023-03-22T09:46:48;94620.22;;;10.27;99.29
11347;BME280;5728;42.722;23.258;2023-03-22T09:49:19;94608.34;;;10.13;100.00
11347;BME280;5728;42.722;23.258;2023-03-22T09:51:50;94605.13;;;10.48;100.00
11347;BME280;5728;42.722;23.258;2023-03-22T09:54:19;94616.47;;;10.43;100.00
11347;BME280;5728;42.722;23.258;2023-03-22T09:56:52;94611.50;;;10.79;99.57
11347;BME280;5728;42.722;23.258;2023-03-22T09:59:24;94609.94;;;10.69;98.82
11347;BME280;5728;42.722;23.258;2023-03-22T10:01:58;94616.31;;;10.52;100.00
11347;BME280;5728;42.722;23.258;2023-03-22T10:04:45;94616.78;;;10.73;100.00
11347;BME280;5728;42.722;23.258;2023-03-22T10:07:23;94609.59;;;10.87;98.89
11347;BME280;5728;42.722;23.258;2023-03-22T10:10:03;94608.00;;;10.80;98.61
11347;BME280;5728;42.722;23.258;2023-03-22T10:12:34;94612.28;;;10.83;98.29
11347;BME280;5728;42.722;23.258;2023-03-22T10:15:10;94613.59;;;10.59;98.21
11347;BME280;5728;42.722;23.258;2023-03-22T10:17:41;94623.69;;;10.74;99.08
11347;BME280;5728;42.722;23.258;2023-03-22T10:20:23;94621.78;;;10.82;98.62
11347;BME280;5728;42.722;23.258;2023-03-22T10:22:55;94616.91;;;10.66;97.68
11347;BME280;5728;42.722;23.258;2023-03-22T10:25:30;94628.66;;;10.39;99.36
11347;BME280;5728;42.722;23.258;2023-03-22T10:27:58;94625.66;;;10.60;99.42
11347;BME280;5728;42.722;23.258;2023-03-22T10:30:29;94621.78;;;10.82;99.29
11347;BME280;5728;42.722;23.258;2023-03-22T10:33:00;94621.88;;;10.79;98.57
11347;BME280;5728;42.722;23.258;2023-03-22T10:35:28;94611.88;;;11.03;97.73
11347;BME280;5728;42.722;23.258;2023-03-22T10:37:57;94617.91;;;11.05;98.72
11347;BME280;5728;42.722;23.258;2023-03-22T10:40:29;94612.38;;;11.21;98.32
11347;BME280;5728;42.722;23.258;2023-03-22T10:42:59;94612.59;;;11.11;97.33
11347;BME280;5728;42.722;23.258;2023-03-22T10:45:32;94617.41;;;11.29;95.75
11347;BME280;5728;42.722;23.258;2023-03-22T10:48:03;94608.22;;;11.54;95.65
11347;BME280;5728;42.722;23.258;2023-03-22T10:50:34;94607.59;;;11.43;90.78
11347;BME280;5728;42.722;23.258;2023-03-22T10:53:03;94611.91;;;11.44;90.74
11347;BME280;5728;42.722;23.258;2023-03-22T10:55:31;94612.66;;;11.49;91.28
11347;BME280;5728;42.722;23.258;2023-03-22T10:58:10;94613.19;;;11.63;92.36
11347;BME280;5728;42.722;23.258;2023-03-22T11:00:42;94619.81;;;11.79;94.18
11347;BME280;5728;42.722;23.258;2023-03-22T11:03:24;94612.81;;;11.81;93.67
11347;BME280;5728;42.722;23.258;2023-03-22T11:05:57;94621.25;;;11.92;91.87
11347;BME280;5728;42.722;23.258;2023-03-22T11:08:24;94618.50;;;11.60;91.48
11347;BME280;5728;42.722;23.258;2023-03-22T11:10:50;94611.03;;;11.83;92.03
11347;BME280;5728;42.722;23.258;2023-03-22T11:13:19;94612.97;;;11.75;92.25
11347;BME280;5728;42.722;23.258;2023-03-22T11:15:54;94620.66;;;11.38;92.08
11347;BME280;5728;42.722;23.258;2023-03-22T11:18:24;94615.59;;;11.74;91.45
11347;BME280;5728;42.722;23.258;2023-03-22T11:20:58;94616.41;;;11.76;91.75
11347;BME280;5728;42.722;23.258;2023-03-22T11:23:26;94620.44;;;11.49;90.89
11347;BME280;5728;42.722;23.258;2023-03-22T11:25:55;94611.56;;;11.59;90.68
11347;BME280;5728;42.722;23.258;2023-03-22T11:28:26;94622.22;;;11.47;90.61
11347;BME280;5728;42.722;23.258;2023-03-22T11:31:01;94607.78;;;11.34;92.68
11347;BME280;5728;42.722;23.258;2023-03-22T11:33:29;94593.84;;;10.97;93.08
11347;BME280;5728;42.722;23.258;2023-03-22T11:35:57;94602.75;;;10.83;94.19
11347;BME280;5728;42.722;23.258;2023-03-22T11:38:27;94603.91;;;10.69;94.06
11347;BME280;5728;42.722;23.258;2023-03-22T11:40:59;94595.19;;;11.16;94.24
11347;BME280;5728;42.722;23.258;2023-03-22T11:43:32;94594.34;;;11.55;92.13
11347;BME280;5728;42.722;23.258;2023-03-22T11:46:02;94594.47;;;11.49;90.32
11347;BME280;5728;42.722;23.258;2023-03-22T11:48:31;94586.78;;;11.44;91.20
11347;BME280;5728;42.722;23.258;2023-03-22T11:51:05;94588.38;;;11.51;91.81
11347;BME280;5728;42.722;23.258;2023-03-22T11:53:34;94586.19;;;10.90;92.30
11347;BME280;5728;42.722;23.258;2023-03-22T11:56:04;94594.31;;;11.17;92.93
11347;BME280;5728;42.722;23.258;2023-03-22T11:58:46;94605.50;;;11.19;93.70
11347;BME280;5728;42.722;23.258;2023-03-22T12:01:20;94597.72;;;11.19;95.01
11347;BME280;5728;42.722;23.258;2023-03-22T12:03:52;94595.59;;;11.37;94.57
11347;BME280;5728;42.722;23.258;2023-03-22T12:06:22;94596.66;;;11.29;93.29
11347;BME280;5728;42.722;23.258;2023-03-22T12:08:52;94598.44;;;11.27;91.08
11347;BME280;5728;42.722;23.258;2023-03-22T12:11:27;94595.75;;;10.88;92.81
11347;BME280;5728;42.722;23.258;2023-03-22T12:13:58;94599.59;;;10.69;94.18
11347;BME280;5728;42.722;23.258;2023-03-22T12:16:28;94596.03;;;10.73;94.84
11347;BME280;5728;42.722;23.258;2023-03-22T12:19:05;94595.84;;;10.82;94.36
11347;BME280;5728;42.722;23.258;2023-03-22T12:21:37;94589.69;;;10.89;94.58
11347;BME280;5728;42.722;23.258;2023-03-22T12:24:23;94591.81;;;10.68;93.83
11347;BME280;5728;42.722;23.258;2023-03-22T12:26:53;94599.63;;;10.65;94.37
11347;BME280;5728;42.722;23.258;2023-03-22T12:29:22;94594.06;;;10.86;95.09
11347;BME280;5728;42.722;23.258;2023-03-22T12:31:59;94583.44;;;11.00;94.70
11347;BME280;5728;42.722;23.258;2023-03-22T12:34:34;94579.41;;;10.83;92.44
11347;BME280;5728;42.722;23.258;2023-03-22T12:37:05;94591.88;;;10.65;91.64
11347;BME280;5728;42.722;23.258;2023-03-22T12:39:36;94586.59;;;11.14;93.45
11347;BME280;5728;42.722;23.258;2023-03-22T12:42:12;94582.72;;;11.33;91.53
11347;BME280;5728;42.722;23.258;2023-03-22T12:44:43;94582.59;;;11.39;88.90
11347;BME280;5728;42.722;23.258;2023-03-22T12:47:16;94575.63;;;11.41;89.17
11347;BME280;5728;42.722;23.258;2023-03-22T12:49:49;94577.28;;;11.45;88.61
11347;BME280;5728;42.722;23.258;2023-03-22T12:52:20;94579.66;;;11.13;88.41
11347;BME280;5728;42.722;23.258;2023-03-22T12:54:50;94579.00;;;11.05;89.01
11347;BME280;5728;42.722;23.258;2023-03-22T12:57:17;94582.78;;;11.30;90.25
11347;BME280;5728;42.722;23.258;2023-03-22T12:59:48;94576.91;;;11.22;90.40
11347;BME280;5728;42.722;23.258;2023-03-22T13:02:22;94579.81;;;11.07;90.02
11347;BME280;5728;42.722;23.258;2023-03-22T13:04:52;94582.97;;;11.21;89.74
11347;BME280;5728;42.722;23.258;2023-03-22T13:07:36;94578.53;;;11.26;89.41
11347;BME280;5728;42.722;23.258;2023-03-22T13:13:14;94585.72;;;11.53;87.53
11347;BME280;5728;42.722;23.258;2023-03-22T13:15:57;94585.41;;;11.70;88.23
11347;BME280;5728;42.722;23.258;2023-03-22T13:18:56;94572.09;;;11.45;87.61
11347;BME280;5728;42.722;23.258;2023-03-22T13:21:24;94568.06;;;11.70;86.34
11347;BME280;5728;42.722;23.258;2023-03-22T13:23:56;94578.47;;;12.41;84.63
11347;BME280;5728;42.722;23.258;2023-03-22T13:26:31;94568.50;;;12.56;84.23